sensor_id;sensor_type;location;lat;lon;timestamp;P1;durP1;ratioP1;P2;durP2;ratioP2
38399;SDS011;24180;42.676;23.320;2023-02-28T00:00:28;28.33;;;18.13;;
38399;SDS011;24180;42.676;23.320;2023-02-28T00:02:53;30.80;;;18.63;;
38399;SDS011;24180;42.676;23.320;2023-02-28T00:05:20;29.53;;;18.10;;
38399;SDS011;24180;42.676;23.320;2023-02-28T00:07:47;31.33;;;18.77;;
38399;SDS011;24180;42.676;23.320;2023-02-28T00:10:14;28.40;;;19.27;;
38399;SDS011;24180;42.676;23.320;2023-02-28T00:12:45;31.73;;;20.10;;
38399;SDS011;24180;42.676;23.320;2023-02-28T00:15:15;27.47;;;18.53;;
38399;SDS011;24180;42.676;23.320;2023-02-28T00:17:41;31.10;;;19.23;;
38399;SDS011;24180;42.676;23.320;2023-02-28T00:20:06;30.33;;;19.33;;
38399;SDS011;24180;42.676;23.320;2023-02-28T00:22:33;29.67;;;19.80;;
38399;SDS011;24180;42.676;23.320;2023-02-28T00:24:59;31.63;;;18.50;;
38399;SDS011;24180;42.676;23.320;2023-02-28T00:27:25;32.20;;;19.60;;
38399;SDS011;24180;42.676;23.320;2023-02-28T00:29:50;32.20;;;19.87;;
38399;SDS011;24180;42.676;23.320;2023-02-28T00:32:16;28.97;;;18.77;;
38399;SDS011;24180;42.676;23.320;2023-02-28T00:34:41;27.40;;;18.57;;
38399;SDS011;24180;42.676;23.320;2023-02-28T00:37:07;30.53;;;19.50;;
38399;SDS011;24180;42.676;23.320;2023-02-28T00:39:35;29.03;;;19.37;;
38399;SDS011;24180;42.676;23.320;2023-02-28T00:42:02;27.43;;;18.87;;
38399;SDS011;24180;42.676;23.320;2023-02-28T00:44:28;32.43;;;19.30;;
38399;SDS011;24180;42.676;23.320;2023-02-28T00:46:53;30.23;;;19.37;;
38399;SDS011;24180;42.676;23.320;2023-02-28T00:49:20;28.90;;;19.10;;
38399;SDS011;24180;42.676;23.320;2023-02-28T00:51:46;28.73;;;18.83;;
38399;SDS011;24180;42.676;23.320;2023-02-28T00:54:11;30.27;;;19.17;;
38399;SDS011;24180;42.676;23.320;2023-02-28T00:56:37;30.73;;;18.83;;
38399;SDS011;24180;42.676;23.320;2023-02-28T00:59:02;31.83;;;19.50;;
38399;SDS011;24180;42.676;23.320;2023-02-28T01:01:28;31.93;;;19.83;;
38399;SDS011;24180;42.676;23.320;2023-02-28T01:03:53;28.90;;;19.73;;
38399;SDS011;24180;42.676;23.320;2023-02-28T01:06:18;33.20;;;19.40;;
38399;SDS011;24180;42.676;23.320;2023-02-28T01:08:44;34.37;;;19.97;;
38399;SDS011;24180;42.676;23.320;2023-02-28T01:11:10;31.53;;;20.10;;
38399;SDS011;24180;42.676;23.320;2023-02-28T01:13:36;39.17;;;20.97;;
38399;SDS011;24180;42.676;23.320;2023-02-28T01:16:02;34.53;;;20.53;;
38399;SDS011;24180;42.676;23.320;2023-02-28T01:18:28;34.00;;;22.37;;
38399;SDS011;24180;42.676;23.320;2023-02-28T01:20:54;37.60;;;23.70;;
38399;SDS011;24180;42.676;23.320;2023-02-28T01:23:21;35.00;;;22.37;;
38399;SDS011;24180;42.676;23.320;2023-02-28T01:25:48;39.53;;;22.63;;
38399;SDS011;24180;42.676;23.320;2023-02-28T01:28:14;41.00;;;24.40;;
38399;SDS011;24180;42.676;23.320;2023-02-28T01:30:40;38.93;;;24.17;;
38399;SDS011;24180;42.676;23.320;2023-02-28T01:33:05;37.60;;;22.10;;
38399;SDS011;24180;42.676;23.320;2023-02-28T01:35:34;37.53;;;23.40;;
38399;SDS011;24180;42.676;23.320;2023-02-28T01:38:00;34.50;;;21.80;;
38399;SDS011;24180;42.676;23.320;2023-02-28T01:40:26;40.47;;;24.03;;
38399;SDS011;24180;42.676;23.320;2023-02-28T01:42:52;39.63;;;23.80;;
38399;SDS011;24180;42.676;23.320;2023-02-28T01:45:22;39.37;;;23.17;;
38399;SDS011;24180;42.676;23.320;2023-02-28T01:47:52;38.57;;;24.17;;
38399;SDS011;24180;42.676;23.320;2023-02-28T01:50:23;41.93;;;25.47;;
38399;SDS011;24180;42.676;23.320;2023-02-28T01:52:53;41.57;;;24.57;;
38399;SDS011;24180;42.676;23.320;2023-02-28T01:55:22;42.87;;;25.97;;
38399;SDS011;24180;42.676;23.320;2023-02-28T01:57:51;42.03;;;24.43;;
38399;SDS011;24180;42.676;23.320;2023-02-28T02:00:20;39.63;;;24.97;;
38399;SDS011;24180;42.676;23.320;2023-02-28T02:02:49;37.47;;;23.87;;
38399;SDS011;24180;42.676;23.320;2023-02-28T02:05:28;37.40;;;23.67;;
38399;SDS011;24180;42.676;23.320;2023-02-28T02:07:56;37.80;;;24.27;;
38399;SDS011;24180;42.676;23.320;2023-02-28T02:11:01;39.47;;;24.67;;
38399;SDS011;24180;42.676;23.320;2023-02-28T02:13:34;43.27;;;24.90;;
38399;SDS011;24180;42.676;23.320;2023-02-28T02:21:40;40.30;;;25.53;;
38399;SDS011;24180;42.676;23.320;2023-02-28T02:37:37;45.27;;;27.23;;
38399;SDS011;24180;42.676;23.320;2023-02-28T02:40:10;53.03;;;28.97;;
38399;SDS011;24180;42.676;23.320;2023-02-28T02:45:12;51.80;;;28.53;;
38399;SDS011;24180;42.676;23.320;2023-02-28T02:47:44;58.17;;;29.97;;
38399;SDS011;24180;42.676;23.320;2023-02-28T02:50:30;59.73;;;29.77;;
38399;SDS011;24180;42.676;23.320;2023-02-28T02:53:00;53.80;;;28.13;;
38399;SDS011;24180;42.676;23.320;2023-02-28T02:55:28;61.57;;;30.83;;
38399;SDS011;24180;42.676;23.320;2023-02-28T02:57:58;64.97;;;31.27;;
38399;SDS011;24180;42.676;23.320;2023-02-28T03:00:45;60.00;;;31.00;;
38399;SDS011;24180;42.676;23.320;2023-02-28T03:03:18;66.43;;;29.93;;
38399;SDS011;24180;42.676;23.320;2023-02-28T03:05:54;67.13;;;31.40;;
38399;SDS011;24180;42.676;23.320;2023-02-28T03:08:23;62.80;;;31.37;;
38399;SDS011;24180;42.676;23.320;2023-02-28T03:10:50;69.43;;;31.97;;
38399;SDS011;24180;42.676;23.320;2023-02-28T03:21:31;73.57;;;32.63;;
38399;SDS011;24180;42.676;23.320;2023-02-28T03:26:23;77.17;;;32.40;;
38399;SDS011;24180;42.676;23.320;2023-02-28T03:31:38;69.90;;;31.83;;
38399;SDS011;24180;42.676;23.320;2023-02-28T03:34:08;61.20;;;30.67;;
38399;SDS011;24180;42.676;23.320;2023-02-28T03:36:47;60.30;;;30.33;;
38399;SDS011;24180;42.676;23.320;2023-02-28T03:39:20;59.13;;;29.70;;
38399;SDS011;24180;42.676;23.320;2023-02-28T03:41:59;60.20;;;30.53;;
38399;SDS011;24180;42.676;23.320;2023-02-28T03:44:30;59.23;;;29.00;;
38399;SDS011;24180;42.676;23.320;2023-02-28T03:47:04;65.17;;;29.97;;
38399;SDS011;24180;42.676;23.320;2023-02-28T03:50:10;57.37;;;28.67;;
38399;SDS011;24180;42.676;23.320;2023-02-28T03:52:32;58.93;;;29.47;;
38399;SDS011;24180;42.676;23.320;2023-02-28T03:55:02;54.53;;;28.70;;
38399;SDS011;24180;42.676;23.320;2023-02-28T03:57:38;54.47;;;28.80;;
38399;SDS011;24180;42.676;23.320;2023-02-28T04:02:44;55.57;;;28.30;;
38399;SDS011;24180;42.676;23.320;2023-02-28T04:05:10;52.23;;;27.00;;
38399;SDS011;24180;42.676;23.320;2023-02-28T04:07:36;53.60;;;28.90;;
38399;SDS011;24180;42.676;23.320;2023-02-28T04:10:02;54.93;;;29.83;;
38399;SDS011;24180;42.676;23.320;2023-02-28T04:12:29;61.33;;;30.07;;
38399;SDS011;24180;42.676;23.320;2023-02-28T04:14:54;57.30;;;29.70;;
38399;SDS011;24180;42.676;23.320;2023-02-28T04:17:20;52.10;;;29.40;;
38399;SDS011;24180;42.676;23.320;2023-02-28T04:19:45;61.70;;;31.20;;
38399;SDS011;24180;42.676;23.320;2023-02-28T04:22:11;58.47;;;31.07;;
38399;SDS011;24180;42.676;23.320;2023-02-28T04:24:36;62.03;;;32.13;;
38399;SDS011;24180;42.676;23.320;2023-02-28T04:27:02;72.53;;;33.83;;
38399;SDS011;24180;42.676;23.320;2023-02-28T04:29:28;72.20;;;33.37;;
38399;SDS011;24180;42.676;23.320;2023-02-28T04:31:55;67.50;;;32.00;;
38399;SDS011;24180;42.676;23.320;2023-02-28T04:34:28;66.57;;;30.40;;
38399;SDS011;24180;42.676;23.320;2023-02-28T04:36:55;53.97;;;27.90;;
38399;SDS011;24180;42.676;23.320;2023-02-28T04:39:21;66.80;;;28.40;;
38399;SDS011;24180;42.676;23.320;2023-02-28T04:41:48;54.43;;;28.13;;
38399;SDS011;24180;42.676;23.320;2023-02-28T04:44:13;51.77;;;26.27;;
38399;SDS011;24180;42.676;23.320;2023-02-28T04:46:40;56.20;;;26.07;;
38399;SDS011;24180;42.676;23.320;2023-02-28T04:49:05;64.50;;;26.03;;
38399;SDS011;24180;42.676;23.320;2023-02-28T04:51:31;47.90;;;24.37;;
38399;SDS011;24180;42.676;23.320;2023-02-28T04:53:56;50.33;;;25.63;;
38399;SDS011;24180;42.676;23.320;2023-02-28T04:56:22;55.30;;;26.83;;
38399;SDS011;24180;42.676;23.320;2023-02-28T04:58:48;50.93;;;25.80;;
38399;SDS011;24180;42.676;23.320;2023-02-28T05:01:18;54.03;;;26.27;;
38399;SDS011;24180;42.676;23.320;2023-02-28T05:03:56;54.97;;;26.07;;
38399;SDS011;24180;42.676;23.320;2023-02-28T05:06:24;65.37;;;30.03;;
38399;SDS011;24180;42.676;23.320;2023-02-28T05:08:51;56.57;;;28.30;;
38399;SDS011;24180;42.676;23.320;2023-02-28T05:11:18;63.97;;;29.30;;
38399;SDS011;24180;42.676;23.320;2023-02-28T05:13:44;68.07;;;30.40;;
38399;SDS011;24180;42.676;23.320;2023-02-28T05:16:10;53.23;;;27.27;;
38399;SDS011;24180;42.676;23.320;2023-02-28T05:18:35;48.37;;;27.07;;
38399;SDS011;24180;42.676;23.320;2023-02-28T05:21:01;53.43;;;27.90;;
38399;SDS011;24180;42.676;23.320;2023-02-28T05:23:27;59.20;;;28.77;;
38399;SDS011;24180;42.676;23.320;2023-02-28T05:25:53;57.53;;;27.80;;
38399;SDS011;24180;42.676;23.320;2023-02-28T05:28:19;57.83;;;29.00;;
38399;SDS011;24180;42.676;23.320;2023-02-28T05:30:45;52.57;;;28.53;;
38399;SDS011;24180;42.676;23.320;2023-02-28T05:33:10;56.83;;;29.00;;
38399;SDS011;24180;42.676;23.320;2023-02-28T05:35:37;53.90;;;28.93;;
38399;SDS011;24180;42.676;23.320;2023-02-28T05:38:04;53.37;;;28.73;;
38399;SDS011;24180;42.676;23.320;2023-02-28T05:40:29;52.07;;;29.07;;
38399;SDS011;24180;42.676;23.320;2023-02-28T05:42:54;57.57;;;27.57;;
38399;SDS011;24180;42.676;23.320;2023-02-28T05:45:20;54.53;;;28.80;;
38399;SDS011;24180;42.676;23.320;2023-02-28T05:47:45;58.43;;;29.50;;
38399;SDS011;24180;42.676;23.320;2023-02-28T05:50:11;56.43;;;27.70;;
38399;SDS011;24180;42.676;23.320;2023-02-28T05:52:36;53.60;;;28.03;;
38399;SDS011;24180;42.676;23.320;2023-02-28T05:55:02;57.23;;;28.63;;
38399;SDS011;24180;42.676;23.320;2023-02-28T05:57:28;54.13;;;29.13;;
38399;SDS011;24180;42.676;23.320;2023-02-28T05:59:53;57.97;;;29.43;;
38399;SDS011;24180;42.676;23.320;2023-02-28T06:02:19;57.50;;;28.90;;
38399;SDS011;24180;42.676;23.320;2023-02-28T06:04:44;50.13;;;29.50;;
38399;SDS011;24180;42.676;23.320;2023-02-28T06:07:10;57.80;;;29.27;;
38399;SDS011;24180;42.676;23.320;2023-02-28T06:09:36;55.90;;;29.27;;
38399;SDS011;24180;42.676;23.320;2023-02-28T06:12:03;57.03;;;30.07;;
38399;SDS011;24180;42.676;23.320;2023-02-28T06:14:32;56.37;;;30.70;;
38399;SDS011;24180;42.676;23.320;2023-02-28T06:16:59;53.60;;;30.77;;
38399;SDS011;24180;42.676;23.320;2023-02-28T06:19:25;57.43;;;31.00;;
38399;SDS011;24180;42.676;23.320;2023-02-28T06:21:51;62.17;;;31.70;;
38399;SDS011;24180;42.676;23.320;2023-02-28T06:24:18;56.73;;;30.57;;
38399;SDS011;24180;42.676;23.320;2023-02-28T06:26:47;57.47;;;31.53;;
38399;SDS011;24180;42.676;23.320;2023-02-28T06:29:13;54.77;;;30.60;;
38399;SDS011;24180;42.676;23.320;2023-02-28T06:31:42;53.57;;;30.20;;
38399;SDS011;24180;42.676;23.320;2023-02-28T06:34:08;58.47;;;31.60;;
38399;SDS011;24180;42.676;23.320;2023-02-28T06:36:36;54.30;;;30.20;;
38399;SDS011;24180;42.676;23.320;2023-02-28T06:39:03;61.53;;;32.47;;
38399;SDS011;24180;42.676;23.320;2023-02-28T06:41:29;58.10;;;32.90;;
38399;SDS011;24180;42.676;23.320;2023-02-28T06:43:55;57.97;;;31.93;;
38399;SDS011;24180;42.676;23.320;2023-02-28T06:46:20;60.97;;;31.67;;
38399;SDS011;24180;42.676;23.320;2023-02-28T06:48:46;58.37;;;33.40;;
38399;SDS011;24180;42.676;23.320;2023-02-28T06:51:16;61.43;;;35.27;;
38399;SDS011;24180;42.676;23.320;2023-02-28T06:53:45;63.47;;;35.43;;
38399;SDS011;24180;42.676;23.320;2023-02-28T06:56:11;58.30;;;34.23;;
38399;SDS011;24180;42.676;23.320;2023-02-28T06:58:39;58.83;;;32.83;;
38399;SDS011;24180;42.676;23.320;2023-02-28T07:01:05;62.80;;;35.60;;
38399;SDS011;24180;42.676;23.320;2023-02-28T07:03:31;55.03;;;32.90;;
38399;SDS011;24180;42.676;23.320;2023-02-28T07:05:56;56.67;;;33.63;;
38399;SDS011;24180;42.676;23.320;2023-02-28T07:08:22;59.93;;;34.17;;
38399;SDS011;24180;42.676;23.320;2023-02-28T07:10:51;56.37;;;33.17;;
38399;SDS011;24180;42.676;23.320;2023-02-28T07:13:20;60.40;;;33.00;;
38399;SDS011;24180;42.676;23.320;2023-02-28T07:16:20;60.60;;;32.90;;
38399;SDS011;24180;42.676;23.320;2023-02-28T07:18:39;59.27;;;33.40;;
38399;SDS011;24180;42.676;23.320;2023-02-28T07:21:05;61.23;;;32.17;;
38399;SDS011;24180;42.676;23.320;2023-02-28T07:23:33;54.20;;;31.70;;
38399;SDS011;24180;42.676;23.320;2023-02-28T07:25:58;60.43;;;33.07;;
38399;SDS011;24180;42.676;23.320;2023-02-28T07:28:24;60.23;;;32.90;;
38399;SDS011;24180;42.676;23.320;2023-02-28T07:30:50;62.50;;;32.73;;
38399;SDS011;24180;42.676;23.320;2023-02-28T07:33:16;54.43;;;31.63;;
38399;SDS011;24180;42.676;23.320;2023-02-28T07:35:41;58.77;;;31.97;;
38399;SDS011;24180;42.676;23.320;2023-02-28T07:38:07;55.20;;;30.50;;
38399;SDS011;24180;42.676;23.320;2023-02-28T07:40:33;53.63;;;30.97;;
38399;SDS011;24180;42.676;23.320;2023-02-28T07:43:00;49.83;;;29.40;;
38399;SDS011;24180;42.676;23.320;2023-02-28T07:45:26;49.63;;;30.20;;
38399;SDS011;24180;42.676;23.320;2023-02-28T07:47:53;45.57;;;29.00;;
38399;SDS011;24180;42.676;23.320;2023-02-28T07:50:19;49.47;;;29.93;;
38399;SDS011;24180;42.676;23.320;2023-02-28T07:52:45;46.77;;;28.77;;
38399;SDS011;24180;42.676;23.320;2023-02-28T07:55:11;44.83;;;27.00;;
38399;SDS011;24180;42.676;23.320;2023-02-28T07:57:36;43.53;;;27.37;;
38399;SDS011;24180;42.676;23.320;2023-02-28T08:00:03;45.20;;;29.33;;
38399;SDS011;24180;42.676;23.320;2023-02-28T08:02:29;42.90;;;27.57;;
38399;SDS011;24180;42.676;23.320;2023-02-28T08:04:55;48.90;;;29.47;;
38399;SDS011;24180;42.676;23.320;2023-02-28T08:07:21;40.97;;;27.37;;
38399;SDS011;24180;42.676;23.320;2023-02-28T08:09:46;46.10;;;29.37;;
38399;SDS011;24180;42.676;23.320;2023-02-28T08:12:12;42.10;;;28.10;;
38399;SDS011;24180;42.676;23.320;2023-02-28T08:14:37;40.47;;;27.73;;
38399;SDS011;24180;42.676;23.320;2023-02-28T08:17:04;46.97;;;28.37;;
38399;SDS011;24180;42.676;23.320;2023-02-28T08:19:30;50.07;;;28.33;;
38399;SDS011;24180;42.676;23.320;2023-02-28T08:21:56;39.33;;;26.90;;
38399;SDS011;24180;42.676;23.320;2023-02-28T08:24:21;41.33;;;26.27;;
38399;SDS011;24180;42.676;23.320;2023-02-28T08:26:47;41.53;;;27.57;;
38399;SDS011;24180;42.676;23.320;2023-02-28T08:29:13;41.73;;;27.73;;
38399;SDS011;24180;42.676;23.320;2023-02-28T08:31:38;37.40;;;26.30;;
38399;SDS011;24180;42.676;23.320;2023-02-28T08:34:07;39.47;;;26.60;;
38399;SDS011;24180;42.676;23.320;2023-02-28T08:36:33;45.23;;;25.63;;
38399;SDS011;24180;42.676;23.320;2023-02-28T08:38:59;37.37;;;25.37;;
38399;SDS011;24180;42.676;23.320;2023-02-28T08:41:24;36.40;;;25.93;;
38399;SDS011;24180;42.676;23.320;2023-02-28T08:43:50;40.63;;;26.97;;
38399;SDS011;24180;42.676;23.320;2023-02-28T08:46:16;43.40;;;26.27;;
38399;SDS011;24180;42.676;23.320;2023-02-28T08:48:42;41.20;;;26.27;;
38399;SDS011;24180;42.676;23.320;2023-02-28T08:51:10;37.83;;;26.33;;
38399;SDS011;24180;42.676;23.320;2023-02-28T08:53:41;37.13;;;25.80;;
38399;SDS011;24180;42.676;23.320;2023-02-28T08:56:08;41.10;;;27.20;;
38399;SDS011;24180;42.676;23.320;2023-02-28T08:58:35;39.20;;;25.97;;
38399;SDS011;24180;42.676;23.320;2023-02-28T09:01:17;39.57;;;26.43;;
38399;SDS011;24180;42.676;23.320;2023-02-28T09:03:45;38.77;;;26.07;;
38399;SDS011;24180;42.676;23.320;2023-02-28T09:06:12;44.73;;;29.87;;
38399;SDS011;24180;42.676;23.320;2023-02-28T09:08:38;42.10;;;27.13;;
38399;SDS011;24180;42.676;23.320;2023-02-28T09:11:05;39.53;;;26.40;;
38399;SDS011;24180;42.676;23.320;2023-02-28T09:13:31;51.40;;;29.73;;
38399;SDS011;24180;42.676;23.320;2023-02-28T09:15:58;66.23;;;33.73;;
38399;SDS011;24180;42.676;23.320;2023-02-28T09:18:24;54.30;;;33.80;;
38399;SDS011;24180;42.676;23.320;2023-02-28T09:20:51;58.93;;;36.57;;
38399;SDS011;24180;42.676;23.320;2023-02-28T09:23:16;58.07;;;36.60;;
38399;SDS011;24180;42.676;23.320;2023-02-28T09:25:45;59.13;;;36.97;;
38399;SDS011;24180;42.676;23.320;2023-02-28T09:28:16;60.77;;;36.67;;
38399;SDS011;24180;42.676;23.320;2023-02-28T09:30:43;68.77;;;37.63;;
38399;SDS011;24180;42.676;23.320;2023-02-28T09:33:10;63.17;;;38.67;;
38399;SDS011;24180;42.676;23.320;2023-02-28T09:35:35;67.90;;;37.97;;
38399;SDS011;24180;42.676;23.320;2023-02-28T09:38:02;58.13;;;35.50;;
38399;SDS011;24180;42.676;23.320;2023-02-28T09:40:28;58.03;;;36.03;;
38399;SDS011;24180;42.676;23.320;2023-02-28T09:42:55;67.70;;;38.93;;
38399;SDS011;24180;42.676;23.320;2023-02-28T09:45:29;55.03;;;33.40;;
38399;SDS011;24180;42.676;23.320;2023-02-28T09:48:10;57.47;;;32.90;;
38399;SDS011;24180;42.676;23.320;2023-02-28T09:50:47;59.83;;;33.63;;
38399;SDS011;24180;42.676;23.320;2023-02-28T09:55:48;53.23;;;32.40;;
38399;SDS011;24180;42.676;23.320;2023-02-28T09:58:24;53.73;;;32.50;;
38399;SDS011;24180;42.676;23.320;2023-02-28T10:01:03;49.27;;;28.27;;
38399;SDS011;24180;42.676;23.320;2023-02-28T10:03:56;34.23;;;21.97;;
38399;SDS011;24180;42.676;23.320;2023-02-28T10:06:29;43.43;;;23.30;;
38399;SDS011;24180;42.676;23.320;2023-02-28T10:09:06;36.57;;;19.87;;
38399;SDS011;24180;42.676;23.320;2023-02-28T10:11:38;29.47;;;18.90;;
38399;SDS011;24180;42.676;23.320;2023-02-28T10:14:09;28.47;;;17.27;;
38399;SDS011;24180;42.676;23.320;2023-02-28T10:19:44;25.10;;;16.50;;
38399;SDS011;24180;42.676;23.320;2023-02-28T10:24:55;21.67;;;15.57;;
38399;SDS011;24180;42.676;23.320;2023-02-28T10:27:34;30.10;;;15.27;;
38399;SDS011;24180;42.676;23.320;2023-02-28T10:30:00;27.07;;;15.53;;
38399;SDS011;24180;42.676;23.320;2023-02-28T10:35:01;23.37;;;14.60;;
38399;SDS011;24180;42.676;23.320;2023-02-28T10:37:37;28.37;;;15.43;;
38399;SDS011;24180;42.676;23.320;2023-02-28T10:40:04;22.17;;;14.20;;
38399;SDS011;24180;42.676;23.320;2023-02-28T10:42:31;31.67;;;15.90;;
38399;SDS011;24180;42.676;23.320;2023-02-28T10:47:48;24.67;;;12.03;;
38399;SDS011;24180;42.676;23.320;2023-02-28T10:50:30;21.50;;;12.17;;
38399;SDS011;24180;42.676;23.320;2023-02-28T10:53:04;25.13;;;13.97;;
38399;SDS011;24180;42.676;23.320;2023-02-28T10:55:38;22.67;;;12.00;;
38399;SDS011;24180;42.676;23.320;2023-02-28T10:58:12;18.40;;;12.77;;
38399;SDS011;24180;42.676;23.320;2023-02-28T11:00:46;24.33;;;12.63;;
38399;SDS011;24180;42.676;23.320;2023-02-28T11:03:25;22.33;;;14.00;;
38399;SDS011;24180;42.676;23.320;2023-02-28T11:05:55;25.13;;;13.80;;
38399;SDS011;24180;42.676;23.320;2023-02-28T11:08:21;21.13;;;13.83;;
38399;SDS011;24180;42.676;23.320;2023-02-28T11:10:47;25.40;;;12.83;;
38399;SDS011;24180;42.676;23.320;2023-02-28T11:13:35;25.77;;;13.73;;
38399;SDS011;24180;42.676;23.320;2023-02-28T11:16:04;20.07;;;13.00;;
38399;SDS011;24180;42.676;23.320;2023-02-28T11:21:06;20.80;;;14.70;;
38399;SDS011;24180;42.676;23.320;2023-02-28T11:23:34;15.43;;;12.80;;
38399;SDS011;24180;42.676;23.320;2023-02-28T11:26:03;19.97;;;13.47;;
38399;SDS011;24180;42.676;23.320;2023-02-28T11:28:31;20.33;;;12.73;;
38399;SDS011;24180;42.676;23.320;2023-02-28T11:31:06;21.27;;;13.70;;
38399;SDS011;24180;42.676;23.320;2023-02-28T11:33:54;24.77;;;14.23;;
38399;SDS011;24180;42.676;23.320;2023-02-28T11:36:25;18.90;;;13.20;;
38399;SDS011;24180;42.676;23.320;2023-02-28T11:38:56;26.03;;;13.60;;
38399;SDS011;24180;42.676;23.320;2023-02-28T11:46:54;20.40;;;13.40;;
38399;SDS011;24180;42.676;23.320;2023-02-28T11:49:37;27.47;;;15.17;;
38399;SDS011;24180;42.676;23.320;2023-02-28T11:52:21;18.87;;;14.00;;
38399;SDS011;24180;42.676;23.320;2023-02-28T11:58:31;20.83;;;15.23;;
38399;SDS011;24180;42.676;23.320;2023-02-28T12:00:34;23.57;;;14.63;;
38399;SDS011;24180;42.676;23.320;2023-02-28T12:06:00;27.27;;;14.83;;
38399;SDS011;24180;42.676;23.320;2023-02-28T12:20:33;23.87;;;13.87;;
38399;SDS011;24180;42.676;23.320;2023-02-28T12:22:37;23.67;;;14.83;;
38399;SDS011;24180;42.676;23.320;2023-02-28T12:28:01;32.83;;;14.10;;
38399;SDS011;24180;42.676;23.320;2023-02-28T12:32:56;30.37;;;14.13;;
38399;SDS011;24180;42.676;23.320;2023-02-28T12:35:33;24.13;;;14.17;;
38399;SDS011;24180;42.676;23.320;2023-02-28T12:41:22;21.47;;;14.57;;
38399;SDS011;24180;42.676;23.320;2023-02-28T12:43:44;26.60;;;13.90;;
38399;SDS011;24180;42.676;23.320;2023-02-28T12:46:17;27.30;;;15.00;;
38399;SDS011;24180;42.676;23.320;2023-02-28T12:48:52;49.83;;;15.63;;
38399;SDS011;24180;42.676;23.320;2023-02-28T12:51:21;19.80;;;12.97;;
38399;SDS011;24180;42.676;23.320;2023-02-28T12:54:04;22.20;;;14.00;;
38399;SDS011;24180;42.676;23.320;2023-02-28T12:59:39;27.20;;;12.10;;
38399;SDS011;24180;42.676;23.320;2023-02-28T13:02:32;27.63;;;12.53;;
38399;SDS011;24180;42.676;23.320;2023-02-28T13:05:24;23.53;;;13.53;;
38399;SDS011;24180;42.676;23.320;2023-02-28T13:08:03;24.30;;;12.37;;
38399;SDS011;24180;42.676;23.320;2023-02-28T13:10:40;25.53;;;13.33;;
38399;SDS011;24180;42.676;23.320;2023-02-28T13:13:19;27.07;;;13.90;;
38399;SDS011;24180;42.676;23.320;2023-02-28T13:15:57;22.57;;;12.73;;
38399;SDS011;24180;42.676;23.320;2023-02-28T13:18:31;22.30;;;12.17;;
38399;SDS011;24180;42.676;23.320;2023-02-28T13:20:56;22.80;;;13.50;;
38399;SDS011;24180;42.676;23.320;2023-02-28T13:23:39;25.53;;;13.17;;
38399;SDS011;24180;42.676;23.320;2023-02-28T13:26:17;21.27;;;13.77;;
38399;SDS011;24180;42.676;23.320;2023-02-28T13:31:14;22.63;;;13.33;;
38399;SDS011;24180;42.676;23.320;2023-02-28T13:44:01;23.23;;;13.40;;
38399;SDS011;24180;42.676;23.320;2023-02-28T13:49:30;23.63;;;12.73;;
38399;SDS011;24180;42.676;23.320;2023-02-28T13:57:34;20.10;;;11.00;;
38399;SDS011;24180;42.676;23.320;2023-02-28T14:00:18;23.50;;;12.90;;
38399;SDS011;24180;42.676;23.320;2023-02-28T14:03:25;24.50;;;12.17;;
38399;SDS011;24180;42.676;23.320;2023-02-28T14:06:08;30.67;;;12.57;;
38399;SDS011;24180;42.676;23.320;2023-02-28T14:08:35;24.33;;;11.60;;
38399;SDS011;24180;42.676;23.320;2023-02-28T14:11:05;18.30;;;11.10;;
38399;SDS011;24180;42.676;23.320;2023-02-28T14:13:44;19.23;;;10.80;;
38399;SDS011;24180;42.676;23.320;2023-02-28T14:16:21;26.30;;;11.03;;
38399;SDS011;24180;42.676;23.320;2023-02-28T14:21:33;21.13;;;11.23;;
38399;SDS011;24180;42.676;23.320;2023-02-28T14:35:02;32.10;;;12.20;;
38399;SDS011;24180;42.676;23.320;2023-02-28T14:37:41;20.63;;;10.77;;
38399;SDS011;24180;42.676;23.320;2023-02-28T14:40:51;17.17;;;11.03;;
38399;SDS011;24180;42.676;23.320;2023-02-28T14:42:59;19.77;;;11.60;;
38399;SDS011;24180;42.676;23.320;2023-02-28T14:45:27;25.47;;;12.87;;
38399;SDS011;24180;42.676;23.320;2023-02-28T14:47:55;21.63;;;11.83;;
38399;SDS011;24180;42.676;23.320;2023-02-28T14:50:23;21.63;;;11.97;;
38399;SDS011;24180;42.676;23.320;2023-02-28T14:52:59;26.33;;;12.17;;
38399;SDS011;24180;42.676;23.320;2023-02-28T14:55:28;22.63;;;11.93;;
38399;SDS011;24180;42.676;23.320;2023-02-28T14:57:57;21.50;;;12.47;;
38399;SDS011;24180;42.676;23.320;2023-02-28T15:00:31;22.23;;;11.73;;
38399;SDS011;24180;42.676;23.320;2023-02-28T15:02:58;26.77;;;11.90;;
38399;SDS011;24180;42.676;23.320;2023-02-28T15:05:29;19.77;;;11.10;;
38399;SDS011;24180;42.676;23.320;2023-02-28T15:10:36;21.80;;;10.43;;
38399;SDS011;24180;42.676;23.320;2023-02-28T15:13:06;21.80;;;11.57;;
38399;SDS011;24180;42.676;23.320;2023-02-28T15:15:40;20.20;;;10.23;;
38399;SDS011;24180;42.676;23.320;2023-02-28T15:21:22;18.17;;;11.20;;
38399;SDS011;24180;42.676;23.320;2023-02-28T15:23:54;21.30;;;11.77;;
38399;SDS011;24180;42.676;23.320;2023-02-28T15:26:22;18.60;;;11.20;;
38399;SDS011;24180;42.676;23.320;2023-02-28T15:28:53;24.37;;;11.40;;
38399;SDS011;24180;42.676;23.320;2023-02-28T15:31:40;17.83;;;9.93;;
38399;SDS011;24180;42.676;23.320;2023-02-28T15:34:17;17.50;;;9.77;;
38399;SDS011;24180;42.676;23.320;2023-02-28T15:36:45;17.10;;;10.20;;
38399;SDS011;24180;42.676;23.320;2023-02-28T15:39:44;19.10;;;9.80;;
38399;SDS011;24180;42.676;23.320;2023-02-28T15:42:11;15.70;;;9.57;;
38399;SDS011;24180;42.676;23.320;2023-02-28T15:44:41;15.90;;;9.47;;
38399;SDS011;24180;42.676;23.320;2023-02-28T15:47:14;20.37;;;9.50;;
38399;SDS011;24180;42.676;23.320;2023-02-28T15:49:55;24.93;;;10.10;;
38399;SDS011;24180;42.676;23.320;2023-02-28T15:54:51;15.63;;;10.17;;
38399;SDS011;24180;42.676;23.320;2023-02-28T15:57:18;17.17;;;10.00;;
38399;SDS011;24180;42.676;23.320;2023-02-28T15:59:51;18.73;;;9.80;;
38399;SDS011;24180;42.676;23.320;2023-02-28T16:02:20;15.13;;;9.23;;
38399;SDS011;24180;42.676;23.320;2023-02-28T16:05:39;13.03;;;8.63;;
38399;SDS011;24180;42.676;23.320;2023-02-28T16:07:45;15.43;;;9.40;;
38399;SDS011;24180;42.676;23.320;2023-02-28T16:10:13;11.93;;;9.60;;
38399;SDS011;24180;42.676;23.320;2023-02-28T16:12:39;11.93;;;9.40;;
38399;SDS011;24180;42.676;23.320;2023-02-28T16:15:07;14.53;;;9.30;;
38399;SDS011;24180;42.676;23.320;2023-02-28T16:17:40;14.73;;;9.47;;
38399;SDS011;24180;42.676;23.320;2023-02-28T16:20:12;12.20;;;9.83;;
38399;SDS011;24180;42.676;23.320;2023-02-28T16:22:41;11.57;;;9.57;;
38399;SDS011;24180;42.676;23.320;2023-02-28T16:25:10;11.97;;;9.77;;
38399;SDS011;24180;42.676;23.320;2023-02-28T16:27:37;10.47;;;8.67;;
38399;SDS011;24180;42.676;23.320;2023-02-28T16:30:04;10.97;;;8.87;;
38399;SDS011;24180;42.676;23.320;2023-02-28T16:32:32;14.23;;;9.40;;
38399;SDS011;24180;42.676;23.320;2023-02-28T16:35:00;9.60;;;7.77;;